createdAt,value
2023-03-17T00:00:01.192Z,6.6
2023-03-17T00:05:00.660Z,6.4
2023-03-17T00:10:00.713Z,6.6
2023-03-17T00:15:00.676Z,6.5
2023-03-17T00:20:00.676Z,6.3
2023-03-17T00:25:00.688Z,6.3
2023-03-17T00:30:00.693Z,6.3
2023-03-17T00:35:00.721Z,6.4
2023-03-17T00:40:00.663Z,6.3
2023-03-17T00:45:00.697Z,6.4
2023-03-17T00:50:00.688Z,6.2
2023-03-17T00:55:00.703Z,6.2
2023-03-17T01:00:00.696Z,6.2
2023-03-17T01:05:06.396Z,6.3
2023-03-17T01:10:00.693Z,6.2
2023-03-17T01:15:00.694Z,6.1
2023-03-17T01:20:00.678Z,6.2
2023-03-17T01:25:00.678Z,6.1
2023-03-17T01:30:00.704Z,6.1
2023-03-17T01:35:00.659Z,6.2
2023-03-17T01:40:00.689Z,6.0
2023-03-17T01:45:00.693Z,6.1
2023-03-17T01:50:00.688Z,6.0
2023-03-17T01:55:00.653Z,6.1
2023-03-17T02:00:00.681Z,6.1
2023-03-17T02:05:00.646Z,6.0
2023-03-17T02:10:00.672Z,6.2
2023-03-17T02:15:00.707Z,6.0
2023-03-17T02:20:00.704Z,5.9
2023-03-17T02:25:00.670Z,5.9
2023-03-17T02:30:00.701Z,5.9
2023-03-17T02:35:00.695Z,5.9
2023-03-17T02:40:00.690Z,5.9
2023-03-17T02:45:00.689Z,5.9
2023-03-17T02:50:00.709Z,5.9
2023-03-17T02:55:00.688Z,5.8
2023-03-17T03:00:00.691Z,6.0
2023-03-17T03:05:00.699Z,5.8
2023-03-17T03:10:00.701Z,5.8
2023-03-17T03:15:00.670Z,5.7
2023-03-17T03:20:00.696Z,5.8
2023-03-17T03:25:00.692Z,5.7
2023-03-17T03:30:00.699Z,5.6
2023-03-17T03:35:00.682Z,5.6
2023-03-17T03:40:00.709Z,5.5
2023-03-17T03:45:00.697Z,5.5
2023-03-17T03:50:00.712Z,5.6
2023-03-17T03:55:00.657Z,5.5
2023-03-17T04:00:00.790Z,5.5
2023-03-17T04:05:00.704Z,5.5
2023-03-17T04:10:00.735Z,5.4
2023-03-17T04:15:00.732Z,5.5
2023-03-17T04:20:00.693Z,5.3
2023-03-17T04:25:00.694Z,5.4
2023-03-17T04:30:00.683Z,5.3
2023-03-17T04:35:00.717Z,5.3
2023-03-17T04:40:00.688Z,5.2
2023-03-17T04:45:00.703Z,5.2
2023-03-17T04:50:00.682Z,5.3
2023-03-17T04:55:00.683Z,5.2
2023-03-17T05:00:00.670Z,5.1
2023-03-17T05:05:00.676Z,5.1
2023-03-17T05:10:00.687Z,5.0
2023-03-17T05:15:00.703Z,5.0
2023-03-17T05:20:00.683Z,4.9
2023-03-17T05:25:00.880Z,5.1
2023-03-17T05:30:00.686Z,5.0
2023-03-17T05:35:00.701Z,4.9
2023-03-17T05:40:00.704Z,4.9
2023-03-17T05:45:00.702Z,5.0
2023-03-17T05:50:00.717Z,4.9
2023-03-17T05:55:00.648Z,4.9
2023-03-17T06:00:00.731Z,5.0
2023-03-17T06:05:00.661Z,5.0
2023-03-17T06:10:00.726Z,4.9
2023-03-17T06:15:00.697Z,4.8
2023-03-17T06:20:00.695Z,4.9
2023-03-17T06:25:00.772Z,5.0
2023-03-17T06:30:00.652Z,4.9
2023-03-17T06:35:00.689Z,4.8
2023-03-17T06:40:00.701Z,4.9
2023-03-17T06:45:00.688Z,5.1
2023-03-17T06:50:00.682Z,5.1
2023-03-17T06:55:00.707Z,5.1
2023-03-17T07:00:00.648Z,5.2
2023-03-17T07:05:00.805Z,5.4
2023-03-17T07:10:00.694Z,5.5
2023-03-17T07:15:00.684Z,5.5
2023-03-17T07:20:00.679Z,5.8
2023-03-17T07:30:00.802Z,6.2
2023-03-17T07:35:00.725Z,6.5
2023-03-17T07:40:00.685Z,6.9
2023-03-17T07:45:01.269Z,6.9
2023-03-17T07:50:00.752Z,7.3
2023-03-17T07:55:00.762Z,7.3
2023-03-17T08:00:00.681Z,7.4
2023-03-17T08:05:00.659Z,7.7
2023-03-17T08:10:00.692Z,8.4
2023-03-17T08:15:00.702Z,8.6
2023-03-17T08:20:00.780Z,9.0
2023-03-17T08:25:00.700Z,8.8
2023-03-17T08:30:00.671Z,9.1
2023-03-17T08:35:00.717Z,9.2
2023-03-17T08:40:00.684Z,10.2
2023-03-17T08:45:00.665Z,10.9
2023-03-17T08:50:00.675Z,11.2
2023-03-17T08:55:00.681Z,12.1
2023-03-17T09:00:00.670Z,13.0
2023-03-17T09:05:00.672Z,12.7
2023-03-17T09:10:00.702Z,13.1
2023-03-17T09:15:00.701Z,13.5
2023-03-17T09:20:00.734Z,12.8
2023-03-17T09:25:00.698Z,13.6
2023-03-17T09:30:00.641Z,13.7
2023-03-17T09:35:00.683Z,14.2
2023-03-17T09:40:00.693Z,14.0
2023-03-17T09:45:00.734Z,14.2
2023-03-17T09:50:00.706Z,13.8
2023-03-17T09:55:00.699Z,14.1
2023-03-17T10:00:00.678Z,15.4
2023-03-17T10:05:00.698Z,16.5
2023-03-17T10:10:00.707Z,16.8
2023-03-17T10:15:00.692Z,15.9
2023-03-17T10:20:00.712Z,14.1
2023-03-17T10:25:03.148Z,13.9
2023-03-17T10:30:00.724Z,15.2
2023-03-17T10:35:00.700Z,14.1
2023-03-17T10:40:00.702Z,14.7
2023-03-17T10:45:00.908Z,14.6
2023-03-17T10:50:00.680Z,14.2
2023-03-17T10:55:00.689Z,14.2
2023-03-17T11:00:00.734Z,14.6
2023-03-17T11:05:00.674Z,14.2
2023-03-17T11:10:00.679Z,14.2
2023-03-17T11:15:00.685Z,14.2
2023-03-17T11:20:00.709Z,14.3
2023-03-17T11:25:00.677Z,14.9
2023-03-17T11:30:00.703Z,15.0
2023-03-17T11:35:00.678Z,14.8
2023-03-17T11:40:00.700Z,14.9
2023-03-17T11:45:00.662Z,15.1
2023-03-17T11:50:00.694Z,15.6
2023-03-17T11:55:00.729Z,15.9
2023-03-17T12:00:00.648Z,16.1
2023-03-17T12:05:00.700Z,15.8
2023-03-17T12:10:00.690Z,16.5
2023-03-17T12:15:00.641Z,16.3
2023-03-17T12:20:00.704Z,16.3
2023-03-17T12:25:00.689Z,16.8
2023-03-17T12:30:00.702Z,16.5
2023-03-17T12:35:00.657Z,16.3
2023-03-17T12:40:00.743Z,16.7
2023-03-17T12:45:00.751Z,17.3
2023-03-17T12:50:00.695Z,16.8
2023-03-17T12:55:00.690Z,16.7
2023-03-17T13:00:00.697Z,16.8
2023-03-17T13:05:00.869Z,17.1
2023-03-17T13:10:00.692Z,17.4
2023-03-17T13:15:00.665Z,17.5
2023-03-17T13:20:00.682Z,16.9
2023-03-17T13:25:00.639Z,17.2
2023-03-17T13:30:00.693Z,17.6
2023-03-17T13:35:00.704Z,17.4
2023-03-17T13:40:00.671Z,17.6
2023-03-17T13:45:00.685Z,17.8
2023-03-17T13:50:00.647Z,17.5
2023-03-17T13:55:00.711Z,17.7
2023-03-17T14:00:00.752Z,17.7
2023-03-17T14:05:00.712Z,17.7
2023-03-17T14:10:00.707Z,17.8
2023-03-17T14:15:00.689Z,17.6
2023-03-17T14:20:00.635Z,17.9
2023-03-17T14:25:00.705Z,17.8
2023-03-17T14:30:00.703Z,17.8
2023-03-17T14:35:00.701Z,18.0
2023-03-17T14:40:00.673Z,17.7
2023-03-17T14:45:00.707Z,17.7
2023-03-17T14:50:00.689Z,17.8
2023-03-17T14:55:00.695Z,17.8
2023-03-17T15:00:00.642Z,17.7
2023-03-17T15:05:00.703Z,17.6
2023-03-17T15:10:00.719Z,17.3
2023-03-17T15:15:00.663Z,17.2
2023-03-17T15:20:00.699Z,17.0
2023-03-17T15:25:00.678Z,16.7
2023-03-17T15:30:00.695Z,16.4
2023-03-17T15:35:00.754Z,16.5
2023-03-17T15:40:00.848Z,16.5
2023-03-17T15:45:00.660Z,16.5
2023-03-17T15:50:00.719Z,16.3
2023-03-17T15:55:00.663Z,16.2
2023-03-17T16:00:00.701Z,16.3
2023-03-17T16:05:00.679Z,16.2
2023-03-17T16:10:00.663Z,16.2
2023-03-17T16:15:03.453Z,16.0
2023-03-17T16:20:00.660Z,16.2
2023-03-17T16:25:01.097Z,16.2
2023-03-17T16:30:00.696Z,16.2
2023-03-17T16:35:00.712Z,15.9
2023-03-17T16:40:00.740Z,15.9
2023-03-17T16:45:00.692Z,16.1
2023-03-17T16:50:00.677Z,15.9
2023-03-17T16:55:00.659Z,15.7
2023-03-17T17:00:00.684Z,15.6
2023-03-17T17:05:00.688Z,15.6
2023-03-17T17:10:00.697Z,15.7
2023-03-17T17:15:00.666Z,15.8
2023-03-17T17:20:00.810Z,15.8
2023-03-17T17:25:00.692Z,15.6
2023-03-17T17:30:00.826Z,15.3
2023-03-17T17:35:00.694Z,15.4
2023-03-17T17:40:00.730Z,15.4
2023-03-17T17:45:00.694Z,15.4
2023-03-17T17:50:00.708Z,15.4
2023-03-17T17:55:00.688Z,15.2
2023-03-17T18:00:00.693Z,15.4
2023-03-17T18:05:00.691Z,15.2
2023-03-17T18:10:00.704Z,15.3
2023-03-17T18:15:00.688Z,15.0
2023-03-17T18:20:00.670Z,15.4
2023-03-17T18:25:00.722Z,15.5
2023-03-17T18:30:00.660Z,14.9
2023-03-17T18:35:00.678Z,14.9
2023-03-17T18:40:13.356Z,14.9
2023-03-17T18:45:00.688Z,14.6
2023-03-17T18:50:00.672Z,14.5
2023-03-17T18:55:00.854Z,14.5
2023-03-17T19:00:00.643Z,14.7
2023-03-17T19:05:00.705Z,14.4
2023-03-17T19:10:00.703Z,14.4
2023-03-17T19:15:00.695Z,14.4
2023-03-17T19:20:00.673Z,14.3
2023-03-17T19:25:00.695Z,14.2
2023-03-17T19:30:00.699Z,14.0
2023-03-17T19:35:00.671Z,14.2
2023-03-17T19:40:00.631Z,14.1
2023-03-17T19:45:00.692Z,14.2
2023-03-17T19:50:00.696Z,14.3
2023-03-17T19:55:00.695Z,14.2
2023-03-17T20:00:00.688Z,14.2
2023-03-17T20:05:00.701Z,14.1
2023-03-17T20:10:00.688Z,13.9
2023-03-17T20:15:00.696Z,13.7
2023-03-17T20:20:00.690Z,13.7
2023-03-17T20:25:00.710Z,13.9
2023-03-17T20:30:00.679Z,14.0
2023-03-17T20:35:00.693Z,13.8
2023-03-17T20:40:00.707Z,13.6
2023-03-17T20:45:00.716Z,13.6
2023-03-17T20:50:00.728Z,13.2
2023-03-17T20:55:01.652Z,13.3
2023-03-17T21:00:00.685Z,13.2
2023-03-17T21:05:00.709Z,13.2
2023-03-17T21:10:00.657Z,13.0
2023-03-17T21:15:00.736Z,13.1
2023-03-17T21:20:00.671Z,12.8
2023-03-17T21:25:00.671Z,13.0
2023-03-17T21:30:00.756Z,12.6
2023-03-17T21:35:00.732Z,12.6
2023-03-17T21:40:00.694Z,12.7
2023-03-17T21:45:00.694Z,12.6
2023-03-17T21:50:00.878Z,12.6
2023-03-17T21:55:00.688Z,12.6
2023-03-17T22:00:00.734Z,12.6
2023-03-17T22:05:00.666Z,12.6
2023-03-17T22:10:00.711Z,12.6
2023-03-17T22:15:00.665Z,12.3
2023-03-17T22:20:00.702Z,12.5
2023-03-17T22:25:00.731Z,12.5
2023-03-17T22:30:00.694Z,12.6
2023-03-17T22:35:00.682Z,12.6
2023-03-17T22:40:00.651Z,13.3
2023-03-17T22:45:00.765Z,12.3
2023-03-17T22:50:00.704Z,12.1
2023-03-17T22:55:00.697Z,12.2
2023-03-17T23:00:00.698Z,12.0
2023-03-17T23:05:00.695Z,11.7
2023-03-17T23:10:00.695Z,11.6
2023-03-17T23:15:00.724Z,11.4
2023-03-17T23:20:00.714Z,11.3
2023-03-17T23:25:00.687Z,11.1
2023-03-17T23:30:00.671Z,11.1
2023-03-17T23:35:00.706Z,11.0
2023-03-17T23:40:00.698Z,10.9
2023-03-17T23:45:00.688Z,11.0
2023-03-17T23:50:00.680Z,11.0
2023-03-17T23:55:00.705Z,11.1
